Time;durP1;ratioP1;P1;durP2;ratioP2;P2;SDS_P1;SDS_P2;PMS_P1;PMS_P2;Temp;Humidity;BMP_temperature;BMP_pressure;BME280_temperature;BME280_humidity;BME280_pressure;Samples;Min_cycle;Max_cycle;Signal;HPM_P1;HPM_P2
2022/10/14 00:02:08;;;;;;;52.70;25.02;;;;;;;12.26;100.00;101206.84;5040487;28;20042;-80
2022/10/14 00:04:33;;;;;;;45.53;24.08;;;;;;;12.25;100.00;101213.38;5039876;28;20048;-79
2022/10/14 00:06:59;;;;;;;46.85;24.27;;;;;;;12.24;100.00;101202.50;5040398;28;20128;-80
2022/10/14 00:09:24;;;;;;;42.88;24.30;;;;;;;12.30;100.00;101213.00;5022203;28;20025;-80
2022/10/14 00:11:50;;;;;;;51.03;24.60;;;;;;;12.27;100.00;101208.63;5056713;28;20100;-80
2022/10/14 00:14:18;;;;;;;45.13;23.10;;;;;;;12.23;100.00;101196.16;5020418;28;20131;-80
2022/10/14 00:16:46;;;;;;;44.15;24.10;;;;;;;12.27;100.00;101205.88;5068897;28;20168;-80
2022/10/14 00:19:13;;;;;;;51.25;24.20;;;;;;;12.28;100.00;101202.13;5057713;28;20021;-80
2022/10/14 00:21:40;;;;;;;45.08;24.35;;;;;;;12.32;100.00;101208.25;5057104;28;20052;-80
2022/10/14 00:24:06;;;;;;;46.72;25.02;;;;;;;12.30;100.00;101200.13;5064241;28;20489;-80
2022/10/14 00:26:34;;;;;;;52.33;24.13;;;;;;;12.31;100.00;101198.25;5073672;28;20040;-79
2022/10/14 00:29:01;;;;;;;57.33;23.67;;;;;;;12.30;100.00;101202.88;5069443;28;20068;-80
2022/10/14 00:31:27;;;;;;;48.72;23.50;;;;;;;12.32;100.00;101213.75;5024431;28;20041;-80
2022/10/14 00:33:53;;;;;;;46.63;24.73;;;;;;;12.34;100.00;101214.47;5056976;28;20063;-80
2022/10/14 00:36:21;;;;;;;45.88;22.55;;;;;;;12.32;100.00;101211.88;5043505;28;20042;-80
2022/10/14 00:38:47;;;;;;;51.38;23.98;;;;;;;12.31;100.00;101212.88;5044482;28;20087;-80
2022/10/14 00:41:20;;;;;;;48.58;24.55;;;;;;;12.29;100.00;101200.25;5057109;28;20431;-79
2022/10/14 00:44:03;;;;;;;40.97;22.90;;;;;;;12.34;100.00;101205.38;5056602;28;20040;-80
2022/10/14 00:46:37;;;;;;;50.28;24.35;;;;;;;12.34;100.00;101197.16;5040889;28;20044;-80
2022/10/14 00:49:08;;;;;;;44.85;23.15;;;;;;;12.28;100.00;101196.66;5056644;28;20021;-80
2022/10/14 00:51:35;;;;;;;48.75;23.00;;;;;;;12.31;100.00;101199.16;5039939;28;20048;-80
2022/10/14 00:54:01;;;;;;;49.35;23.83;;;;;;;12.30;100.00;101191.03;5034580;28;20040;-80
2022/10/14 00:56:29;;;;;;;45.20;24.40;;;;;;;12.29;100.00;101187.41;5050521;28;20037;-79
2022/10/14 00:58:55;;;;;;;56.42;25.25;;;;;;;12.30;100.00;101191.91;5054395;28;20100;-79
2022/10/14 01:01:21;;;;;;;53.90;25.15;;;;;;;12.29;100.00;101183.78;5039152;28;20120;-80
2022/10/14 01:03:46;;;;;;;61.65;24.63;;;;;;;12.32;100.00;101180.78;5054891;28;20036;-80
2022/10/14 01:06:33;;;;;;;47.92;25.45;;;;;;;12.31;100.00;101177.19;5034200;28;20090;-80
2022/10/14 01:09:39;;;;;;;46.40;24.08;;;;;;;12.35;100.00;101172.31;5058322;28;20033;-80
2022/10/14 01:12:22;;;;;;;48.15;24.70;;;;;;;12.34;100.00;101169.69;5072148;28;20115;-80
2022/10/14 01:15:09;;;;;;;51.50;25.15;;;;;;;12.34;100.00;101173.28;5057203;28;20060;-80
2022/10/14 01:17:54;;;;;;;58.97;25.83;;;;;;;12.37;100.00;101166.69;5057674;28;20037;-80
2022/10/14 01:20:22;;;;;;;54.08;25.00;;;;;;;12.31;100.00;101177.19;5055468;28;20021;-80
2022/10/14 01:23:33;;;;;;;60.58;26.25;;;;;;;12.33;100.00;101177.06;5040051;28;20032;-80
2022/10/14 01:26:04;;;;;;;55.10;25.75;;;;;;;12.34;100.00;101167.81;5069284;28;20077;-81
2022/10/14 01:28:55;;;;;;;61.60;27.85;;;;;;;12.35;100.00;101168.66;5065114;28;20059;-81
2022/10/14 01:31:29;;;;;;;63.50;27.25;;;;;;;12.29;100.00;101159.94;5053198;28;20504;-81
2022/10/14 01:33:58;;;;;;;65.93;27.98;;;;;;;12.27;100.00;101150.97;5047900;28;20047;-81
2022/10/14 01:36:27;;;;;;;66.38;28.67;;;;;;;12.30;100.00;101152.59;5056740;28;20028;-80
2022/10/14 01:38:59;;;;;;;62.17;29.10;;;;;;;12.25;100.00;101155.72;5056360;28;20033;-80
2022/10/14 01:41:30;;;;;;;63.55;27.80;;;;;;;12.23;100.00;101144.00;5054147;28;20457;-80
2022/10/14 01:44:01;;;;;;;77.28;30.77;;;;;;;12.23;100.00;101140.34;5060343;28;20480;-80
2022/10/14 01:46:28;;;;;;;77.63;29.25;;;;;;;12.23;100.00;101141.25;5039898;28;20061;-80
2022/10/14 01:48:59;;;;;;;84.63;30.63;;;;;;;12.26;100.00;101140.09;5038167;28;20142;-80
2022/10/14 01:51:46;;;;;;;65.90;30.80;;;;;;;12.24;100.00;101132.00;5054189;28;20033;-80
2022/10/14 01:54:22;;;;;;;67.65;30.35;;;;;;;12.21;100.00;101114.91;5056667;28;20033;-80
2022/10/14 01:56:50;;;;;;;75.70;31.00;;;;;;;12.22;100.00;101114.78;5055608;28;20044;-80
2022/10/14 01:59:18;;;;;;;74.95;31.42;;;;;;;12.21;100.00;101112.16;5056711;28;20473;-79
2022/10/14 02:01:43;;;;;;;73.82;30.77;;;;;;;12.18;100.00;101107.78;5055682;28;20084;-80
2022/10/14 02:04:20;;;;;;;78.45;31.85;;;;;;;12.20;100.00;101113.16;5005184;28;20098;-80
2022/10/14 02:07:12;;;;;;;73.70;30.70;;;;;;;12.21;100.00;101112.16;5056200;28;20028;-80
2022/10/14 02:10:10;;;;;;;73.68;31.48;;;;;;;12.22;100.00;101113.91;5050664;28;20052;-80
2022/10/14 02:12:44;;;;;;;78.53;31.33;;;;;;;12.24;100.00;101109.16;5038366;28;20029;-80
2022/10/14 02:15:19;;;;;;;79.20;32.08;;;;;;;12.25;100.00;101111.78;5058515;28;20060;-80
2022/10/14 02:17:59;;;;;;;77.82;32.78;;;;;;;12.25;100.00;101102.69;5055644;28;20040;-80
2022/10/14 02:20:32;;;;;;;78.95;30.33;;;;;;;12.21;100.00;101107.53;5056343;28;20033;-80
2022/10/14 02:23:03;;;;;;;76.18;30.50;;;;;;;12.21;100.00;101099.28;5055614;28;20039;-80
2022/10/14 02:25:33;;;;;;;70.38;31.33;;;;;;;12.21;100.00;101093.81;5056287;28;20036;-80
2022/10/14 02:28:01;;;;;;;76.07;31.83;;;;;;;12.25;100.00;101100.81;5056848;28;20033;-79
2022/10/14 02:30:30;;;;;;;69.35;30.58;;;;;;;12.22;100.00;101083.72;5052582;28;20074;-80
2022/10/14 02:32:59;;;;;;;76.95;30.45;;;;;;;12.26;100.00;101091.53;5051830;28;20029;-79
2022/10/14 02:35:24;;;;;;;70.93;30.65;;;;;;;12.30;100.00;101090.31;5036748;28;20045;-80
2022/10/14 02:37:51;;;;;;;75.28;30.80;;;;;;;12.25;100.00;101099.94;5040061;28;20041;-80
2022/10/14 02:40:25;;;;;;;69.85;31.02;;;;;;;12.31;100.00;101097.56;5040009;28;20057;-81
2022/10/14 02:42:51;;;;;;;81.45;32.70;;;;;;;12.29;100.00;101098.66;5044966;28;20032;-81
2022/10/14 02:45:18;;;;;;;73.63;30.90;;;;;;;12.29;100.00;101095.94;5040663;28;20138;-81
2022/10/14 02:47:43;;;;;;;70.50;31.15;;;;;;;12.29;100.00;101091.28;5026935;28;20025;-80
2022/10/14 02:50:09;;;;;;;69.93;29.40;;;;;;;12.36;100.00;101094.41;5042870;28;20041;-81
2022/10/14 02:52:35;;;;;;;66.35;30.23;;;;;;;12.35;100.00;101094.53;5059306;28;20048;-81
2022/10/14 02:55:00;;;;;;;75.72;30.95;;;;;;;12.31;100.00;101088.44;5034467;28;20389;-81
2022/10/14 02:57:25;;;;;;;78.80;31.42;;;;;;;12.32;100.00;101091.03;5024410;28;20063;-81
2022/10/14 02:59:51;;;;;;;78.78;32.15;;;;;;;12.32;100.00;101080.06;5058851;28;20029;-81
2022/10/14 03:02:16;;;;;;;72.85;31.05;;;;;;;12.38;100.00;101080.56;5009008;28;20109;-80
2022/10/14 03:04:41;;;;;;;72.50;30.85;;;;;;;12.37;100.00;101079.69;5058876;28;20048;-80
2022/10/14 03:07:07;;;;;;;72.43;30.30;;;;;;;12.35;100.00;101076.22;5042149;28;20040;-80
2022/10/14 03:09:32;;;;;;;67.90;30.80;;;;;;;12.36;100.00;101080.69;5057487;28;20073;-78
2022/10/14 03:11:58;;;;;;;68.55;29.90;;;;;;;12.37;100.00;101076.94;5052445;28;20196;-79
2022/10/14 03:14:23;;;;;;;74.95;32.03;;;;;;;12.37;100.00;101067.84;5065164;28;20041;-79
2022/10/14 03:16:49;;;;;;;69.95;29.58;;;;;;;12.39;100.00;101063.09;5061420;28;20056;-78
2022/10/14 03:19:14;;;;;;;67.97;30.17;;;;;;;12.37;100.00;101063.22;5049729;28;20037;-79
2022/10/14 03:21:40;;;;;;;75.15;31.67;;;;;;;12.38;100.00;101066.81;5051969;28;20067;-79
2022/10/14 03:24:05;;;;;;;69.28;31.10;;;;;;;12.36;100.00;101055.97;5037085;28;20449;-79
2022/10/14 03:26:31;;;;;;;66.82;31.30;;;;;;;12.38;100.00;101062.22;5051059;28;20124;-79
2022/10/14 03:28:56;;;;;;;78.07;32.20;;;;;;;12.42;100.00;101060.09;5071318;28;20070;-79
2022/10/14 03:31:22;;;;;;;69.53;30.63;;;;;;;12.40;100.00;101062.09;5057555;28;20037;-80
2022/10/14 03:33:47;;;;;;;67.32;30.30;;;;;;;12.40;100.00;101053.84;5056551;28;20060;-79
2022/10/14 03:36:13;;;;;;;75.53;30.45;;;;;;;12.40;100.00;101051.97;5025396;28;20591;-79
2022/10/14 03:38:38;;;;;;;70.57;32.33;;;;;;;12.39;100.00;101050.22;5041766;28;20037;-79
2022/10/14 03:41:04;;;;;;;67.25;30.90;;;;;;;12.44;100.00;101058.94;5039974;28;20507;-79
2022/10/14 03:43:29;;;;;;;84.03;32.25;;;;;;;12.47;100.00;101053.19;5038203;28;20040;-79
2022/10/14 03:45:55;;;;;;;72.20;32.50;;;;;;;12.44;100.00;101047.09;5024280;28;20488;-80
2022/10/14 03:48:21;;;;;;;74.07;32.35;;;;;;;12.45;100.00;101054.34;5049679;28;20521;-80
2022/10/14 03:50:47;;;;;;;75.85;32.47;;;;;;;12.43;100.00;101042.59;5035767;28;20033;-80
2022/10/14 03:53:13;;;;;;;79.80;33.05;;;;;;;12.46;100.00;101043.22;5050773;28;20143;-79
2022/10/14 03:55:38;;;;;;;89.20;34.05;;;;;;;12.47;100.00;101041.34;5024016;28;20181;-79
2022/10/14 03:58:04;;;;;;;76.78;32.22;;;;;;;12.46;100.00;101029.50;5055630;28;20024;-78
2022/10/14 04:00:30;;;;;;;89.88;32.08;;;;;;;12.48;100.00;101034.88;5055709;28;20139;-78
2022/10/14 04:02:55;;;;;;;74.47;32.35;;;;;;;12.49;100.00;101031.09;5056530;28;20029;-78
2022/10/14 04:05:21;;;;;;;66.95;30.67;;;;;;;12.44;100.00;101030.63;5048146;28;20040;-79
2022/10/14 04:07:46;;;;;;;75.30;31.63;;;;;;;12.42;100.00;101028.00;5047541;28;20064;-81
2022/10/14 04:10:12;;;;;;;79.38;33.15;;;;;;;12.43;100.00;101027.00;5051677;28;20504;-78
2022/10/14 04:12:39;;;;;;;74.53;30.90;;;;;;;12.47;100.00;101022.13;5038909;28;20098;-80
2022/10/14 04:15:06;;;;;;;77.18;32.55;;;;;;;12.49;100.00;101023.75;5056140;28;20025;-80
2022/10/14 04:17:32;;;;;;;81.88;32.47;;;;;;;12.50;100.00;101030.09;5057052;28;20036;-80
2022/10/14 04:19:57;;;;;;;70.90;32.08;;;;;;;12.52;100.00;101029.97;5022902;28;20435;-80
2022/10/14 04:22:23;;;;;;;73.78;32.13;;;;;;;12.52;100.00;101028.09;5061866;28;20554;-79
2022/10/14 04:24:48;;;;;;;76.25;30.80;;;;;;;12.50;100.00;101016.38;5036971;28;20086;-80
2022/10/14 04:27:14;;;;;;;77.80;30.70;;;;;;;12.51;100.00;101015.38;5042668;28;20400;-80
2022/10/14 04:29:39;;;;;;;71.65;30.27;;;;;;;12.53;100.00;101012.47;5041357;28;20033;-80
2022/10/14 04:32:05;;;;;;;66.03;28.80;;;;;;;12.50;100.00;101013.63;5036313;28;20167;-80
2022/10/14 04:34:30;;;;;;;74.32;29.85;;;;;;;12.50;100.00;101016.38;5055258;28;20033;-79
2022/10/14 04:36:56;;;;;;;81.13;30.67;;;;;;;12.55;100.00;101019.59;5056226;28;20081;-80
2022/10/14 04:39:21;;;;;;;79.28;32.05;;;;;;;12.54;100.00;101008.75;5054502;28;20028;-79
2022/10/14 04:41:46;;;;;;;83.25;31.50;;;;;;;12.51;100.00;100993.41;5039249;28;20051;-79
2022/10/14 04:44:12;;;;;;;89.60;32.08;;;;;;;12.56;100.00;101010.38;5057358;28;20055;-80
2022/10/14 04:46:37;;;;;;;82.80;32.65;;;;;;;12.57;100.00;101000.25;5032608;28;20044;-81
2022/10/14 04:49:03;;;;;;;80.22;31.80;;;;;;;12.53;100.00;100999.63;5056635;28;20047;-80
2022/10/14 04:51:28;;;;;;;84.57;31.27;;;;;;;12.58;100.00;101007.50;5045454;28;20061;-80
2022/10/14 04:53:53;;;;;;;79.35;31.23;;;;;;;12.60;100.00;101008.22;5052488;28;20037;-80
2022/10/14 04:56:19;;;;;;;88.30;33.05;;;;;;;12.60;100.00;100995.34;5040292;28;20033;-82
2022/10/14 04:58:44;;;;;;;79.88;31.17;;;;;;;12.60;100.00;100999.97;5057141;28;20048;-81
2022/10/14 05:01:10;;;;;;;86.22;32.30;;;;;;;12.60;100.00;101000.84;5039434;28;20043;-81
2022/10/14 05:03:35;;;;;;;79.90;31.40;;;;;;;12.60;100.00;101003.59;5026508;28;20043;-81
2022/10/14 05:06:00;;;;;;;80.43;31.75;;;;;;;12.59;100.00;101001.88;5040881;28;20089;-81
2022/10/14 05:08:26;;;;;;;76.45;29.85;;;;;;;12.60;100.00;100995.34;5061386;28;20121;-81
2022/10/14 05:10:51;;;;;;;79.72;31.45;;;;;;;12.61;100.00;100993.47;5058852;28;20036;-81
2022/10/14 05:13:17;;;;;;;73.32;30.95;;;;;;;12.60;100.00;100992.59;5039537;28;20037;-81
2022/10/14 05:15:42;;;;;;;73.95;30.83;;;;;;;12.62;100.00;100987.84;5022577;28;20068;-81
2022/10/14 05:18:11;;;;;;;84.32;31.52;;;;;;;12.64;100.00;100988.59;5007347;28;20489;-81
2022/10/14 05:20:37;;;;;;;79.07;31.15;;;;;;;12.67;100.00;100992.94;5038762;28;20025;-80
2022/10/14 05:23:03;;;;;;;81.18;30.98;;;;;;;12.65;100.00;100982.09;5056226;28;20025;-80
2022/10/14 05:25:28;;;;;;;73.95;30.70;;;;;;;12.66;100.00;100972.84;5020815;28;20102;-81
2022/10/14 05:27:54;;;;;;;82.35;30.88;;;;;;;12.67;100.00;100974.59;5042956;28;20033;-80
2022/10/14 05:30:19;;;;;;;76.35;31.92;;;;;;;12.67;100.00;100963.63;5044127;28;20396;-81
2022/10/14 05:32:45;;;;;;;81.90;31.55;;;;;;;12.70;100.00;100967.97;5022842;28;20035;-80
2022/10/14 05:35:10;;;;;;;89.38;31.30;;;;;;;12.67;100.00;100969.13;5053936;28;20051;-82
2022/10/14 05:37:35;;;;;;;82.65;33.38;;;;;;;12.64;100.00;100958.38;5055741;28;20021;-80
2022/10/14 05:40:01;;;;;;;78.55;30.50;;;;;;;12.69;100.00;100967.09;5069008;28;20476;-79
2022/10/14 05:42:26;;;;;;;78.53;30.95;;;;;;;12.69;100.00;100967.09;5038205;28;20041;-80
2022/10/14 05:44:52;;;;;;;74.10;30.77;;;;;;;12.67;100.00;100949.88;5004561;28;20036;-80
2022/10/14 05:47:17;;;;;;;76.93;30.23;;;;;;;12.66;100.00;100958.25;5054293;28;20045;-80
2022/10/14 05:49:43;;;;;;;84.53;30.90;;;;;;;12.68;100.00;100956.25;5037637;28;20033;-80
2022/10/14 05:52:08;;;;;;;72.53;29.85;;;;;;;12.65;100.00;100940.88;5039028;28;20037;-80
2022/10/14 05:54:33;;;;;;;76.90;30.17;;;;;;;12.67;100.00;100943.50;5038531;28;20124;-80
2022/10/14 05:56:59;;;;;;;75.70;31.23;;;;;;;12.67;100.00;100938.00;5055848;28;20502;-79
2022/10/14 05:59:28;;;;;;;83.05;31.58;;;;;;;12.71;100.00;100938.59;5020456;28;20045;-81
2022/10/14 06:01:54;;;;;;;72.70;29.15;;;;;;;12.69;100.00;100942.38;5040303;28;20045;-81
2022/10/14 06:04:20;;;;;;;69.75;29.27;;;;;;;12.71;100.00;100942.25;5040341;28;20039;-81
2022/10/14 06:06:45;;;;;;;72.82;29.00;;;;;;;12.67;100.00;100935.25;5039205;28;20056;-81
2022/10/14 06:09:11;;;;;;;66.38;29.60;;;;;;;12.70;100.00;100932.25;5051926;28;20133;-80
2022/10/14 06:11:37;;;;;;;59.85;27.05;;;;;;;12.70;100.00;100924.00;5054043;28;20033;-81
2022/10/14 06:14:02;;;;;;;74.15;28.27;;;;;;;12.68;100.00;100921.38;5055654;28;20043;-81
2022/10/14 06:16:28;;;;;;;61.00;25.95;;;;;;;12.72;100.00;100923.88;5056375;28;20061;-81
2022/10/14 06:18:53;;;;;;;60.58;26.45;;;;;;;12.69;100.00;100925.00;5038171;28;20045;-80
2022/10/14 06:21:19;;;;;;;66.13;27.20;;;;;;;12.71;100.00;100925.75;5055602;28;20076;-80
2022/10/14 06:23:44;;;;;;;54.85;24.98;;;;;;;12.75;100.00;100929.09;5055152;28;20048;-79
2022/10/14 06:26:09;;;;;;;55.40;25.73;;;;;;;12.80;100.00;100924.94;5034324;28;20037;-81
2022/10/14 06:28:36;;;;;;;58.42;26.30;;;;;;;12.78;100.00;100924.22;5029957;28;20033;-80
2022/10/14 06:31:01;;;;;;;56.67;25.20;;;;;;;12.81;100.00;100926.69;5048396;28;20099;-80
2022/10/14 06:33:28;;;;;;;56.65;25.95;;;;;;;12.81;100.00;100918.44;5053398;28;20104;-80
2022/10/14 06:35:54;;;;;;;62.20;25.83;;;;;;;12.75;100.00;100913.47;5039321;28;20032;-81
2022/10/14 06:38:20;;;;;;;59.55;26.40;;;;;;;12.81;100.00;100926.69;5058627;28;20477;-81
2022/10/14 06:40:48;;;;;;;57.45;24.02;;;;;;;12.83;100.00;100919.16;5018666;28;20120;-80
2022/10/14 06:43:13;;;;;;;57.20;25.20;;;;;;;12.81;100.00;100912.09;5059526;28;20112;-80
2022/10/14 06:45:39;;;;;;;49.92;23.83;;;;;;;12.83;100.00;100923.81;5053279;28;20209;-81
2022/10/14 06:48:04;;;;;;;61.47;24.23;;;;;;;12.85;100.00;100916.28;5059822;28;20495;-81
2022/10/14 06:50:30;;;;;;;48.00;22.90;;;;;;;12.82;100.00;100919.31;5042112;28;20047;-81
2022/10/14 06:52:55;;;;;;;52.92;23.42;;;;;;;12.83;100.00;100913.69;5040673;28;20064;-81
2022/10/14 06:55:21;;;;;;;49.15;22.27;;;;;;;12.81;100.00;100907.44;5059693;28;20408;-80
2022/10/14 06:57:46;;;;;;;42.55;22.52;;;;;;;12.89;100.00;100909.53;5040922;28;20033;-80
2022/10/14 07:00:12;;;;;;;52.25;23.05;;;;;;;12.88;100.00;100907.78;5051006;28;20043;-80
2022/10/14 07:02:37;;;;;;;46.80;22.95;;;;;;;12.88;100.00;100905.03;5059684;28;20446;-80
2022/10/14 07:05:04;;;;;;;48.10;22.60;;;;;;;12.88;100.00;100902.28;5042515;28;20037;-80
2022/10/14 07:07:30;;;;;;;49.85;23.75;;;;;;;12.90;100.00;100900.25;5059416;28;20040;-80
2022/10/14 07:09:57;;;;;;;52.25;24.73;;;;;;;12.94;100.00;100903.63;5026836;28;20074;-80
2022/10/14 07:12:23;;;;;;;45.42;23.20;;;;;;;12.92;100.00;100902.88;5061204;28;20439;-80
2022/10/14 07:14:48;;;;;;;45.67;23.40;;;;;;;12.95;100.00;100905.34;5059842;28;20033;-80
2022/10/14 07:17:14;;;;;;;45.75;22.65;;;;;;;12.97;100.00;100904.22;5062146;28;20049;-80
2022/10/14 07:19:39;;;;;;;48.72;22.25;;;;;;;12.98;100.00;100908.69;5077113;28;20033;-80
2022/10/14 07:22:06;;;;;;;50.45;22.60;;;;;;;12.98;100.00;100900.47;5060101;28;20045;-80
2022/10/14 07:24:31;;;;;;;44.38;21.75;;;;;;;12.98;100.00;100891.34;5060411;28;20071;-80
2022/10/14 07:26:57;;;;;;;46.13;22.02;;;;;;;13.04;100.00;100894.41;5061803;28;20039;-80
2022/10/14 07:29:22;;;;;;;39.53;20.00;;;;;;;13.05;100.00;100903.53;5042847;28;20546;-80
2022/10/14 07:31:47;;;;;;;35.83;19.05;;;;;;;13.06;100.00;100900.66;5058469;28;20439;-79
2022/10/14 07:34:13;;;;;;;36.35;20.08;;;;;;;13.05;100.00;100893.44;5061135;28;20033;-79
2022/10/14 07:36:39;;;;;;;35.10;20.10;;;;;;;13.11;100.00;100904.88;5042582;28;20037;-79
2022/10/14 07:39:04;;;;;;;34.05;17.77;;;;;;;13.09;100.00;100907.75;5042699;28;20028;-80
2022/10/14 07:41:31;;;;;;;35.75;19.15;;;;;;;13.08;100.00;100910.66;5060591;28;20037;-79
2022/10/14 07:44:04;;;;;;;33.42;18.25;;;;;;;13.11;100.00;100911.22;5060156;28;20036;-80
2022/10/14 07:46:31;;;;;;;32.78;17.15;;;;;;;13.13;100.00;100908.34;5060967;28;20056;-80
2022/10/14 07:49:12;;;;;;;37.90;18.65;;;;;;;13.19;100.00;100902.31;5042479;28;20036;-80
2022/10/14 07:51:39;;;;;;;33.63;18.00;;;;;;;13.20;100.00;100904.06;5060371;28;20041;-80
2022/10/14 07:54:10;;;;;;;35.00;17.85;;;;;;;13.21;100.00;100903.91;5060763;28;20059;-80
2022/10/14 07:56:37;;;;;;;29.67;16.52;;;;;;;13.23;100.00;100901.00;5060692;28;20079;-80
2022/10/14 07:59:02;;;;;;;32.85;17.42;;;;;;;13.24;100.00;100898.13;5059798;28;20021;-80
2022/10/14 08:01:28;;;;;;;32.28;17.25;;;;;;;13.30;100.00;100904.97;5060124;28;20182;-79
2022/10/14 08:03:53;;;;;;;29.25;16.20;;;;;;;13.35;100.00;100886.19;5046010;28;20037;-80
2022/10/14 08:06:19;;;;;;;30.13;16.35;;;;;;;13.33;100.00;100896.47;5023404;28;20033;-79
2022/10/14 08:08:45;;;;;;;29.42;15.98;;;;;;;13.36;100.00;100884.31;5046791;28;20038;-80
2022/10/14 08:11:19;;;;;;;26.85;15.65;;;;;;;13.37;100.00;100884.19;5008206;28;20037;-80
2022/10/14 08:13:46;;;;;;;28.63;14.70;;;;;;;13.44;100.00;100883.63;5072078;28;20043;-79
2022/10/14 08:16:17;;;;;;;25.45;13.90;;;;;;;13.40;100.00;100883.03;5043398;28;20148;-80
2022/10/14 08:18:43;;;;;;;28.17;15.65;;;;;;;13.45;100.00;100877.13;5060580;28;20086;-79
2022/10/14 08:21:09;;;;;;;24.60;14.75;;;;;;;13.36;100.00;100885.22;5027831;28;20037;-80
2022/10/14 08:23:34;;;;;;;22.30;14.18;;;;;;;13.39;100.00;100870.28;5060168;28;20039;-79
2022/10/14 08:25:59;;;;;;;24.75;14.55;;;;;;;13.43;100.00;100871.75;5042595;28;20040;-79
2022/10/14 08:28:25;;;;;;;27.02;13.98;;;;;;;13.49;100.00;100875.81;5042759;28;20040;-81
2022/10/14 08:30:52;;;;;;;20.67;12.60;;;;;;;13.53;100.00;100877.28;5044194;28;20049;-80
2022/10/14 08:33:18;;;;;;;23.38;12.55;;;;;;;13.51;100.00;100873.78;5059806;28;20396;-80
2022/10/14 08:35:43;;;;;;;20.45;12.90;;;;;;;13.57;100.00;100871.34;5061357;28;20035;-79
2022/10/14 08:38:10;;;;;;;22.40;12.13;;;;;;;13.67;100.00;100868.63;5042509;28;20029;-80
2022/10/14 08:40:56;;;;;;;19.58;12.50;;;;;;;13.66;100.00;100861.41;5061394;28;20476;-80
2022/10/14 08:43:31;;;;;;;17.33;11.18;;;;;;;13.66;100.00;100864.16;5059912;28;20096;-80
2022/10/14 08:46:10;;;;;;;17.95;10.05;;;;;;;13.65;100.00;100861.53;5061439;28;20484;-80
2022/10/14 08:48:36;;;;;;;24.05;11.23;;;;;;;13.70;100.00;100861.97;5060766;28;20035;-80
2022/10/14 08:51:08;;;;;;;21.90;11.48;;;;;;;13.72;100.00;100873.72;5043438;28;20025;-80
2022/10/14 08:53:42;;;;;;;17.85;10.00;;;;;;;13.73;100.00;100862.56;5059926;28;20457;-80
2022/10/14 08:56:10;;;;;;;16.13;10.52;;;;;;;13.69;100.00;100858.38;5060055;28;20112;-80
2022/10/14 08:58:42;;;;;;;15.07;10.10;;;;;;;13.73;100.00;100854.31;5061079;28;20029;-80
2022/10/14 09:01:25;;;;;;;16.83;10.27;;;;;;;13.82;100.00;100868.22;5077081;28;20025;-80
2022/10/14 09:03:57;;;;;;;19.50;10.38;;;;;;;13.82;100.00;100866.31;5060156;28;20598;-80
2022/10/14 09:06:34;;;;;;;12.95;9.13;;;;;;;13.84;100.00;100869.84;5060764;28;20041;-80
2022/10/14 09:09:08;;;;;;;21.02;10.43;;;;;;;13.85;100.00;100865.19;5058900;28;20047;-79
2022/10/14 09:11:40;;;;;;;17.73;10.02;;;;;;;13.82;100.00;100855.31;5059754;28;20029;-80
2022/10/14 09:14:08;;;;;;;15.60;9.90;;;;;;;13.86;100.00;100864.19;5059356;28;20043;-80
2022/10/14 09:16:37;;;;;;;13.55;8.98;;;;;;;13.88;100.00;100857.50;5062187;28;20443;-80
2022/10/14 09:19:07;;;;;;;13.20;9.13;;;;;;;13.89;100.00;100859.25;5049521;28;20022;-81
2022/10/14 09:21:38;;;;;;;16.90;9.18;;;;;;;13.95;100.00;100858.69;5042176;28;20056;-80
2022/10/14 09:24:22;;;;;;;15.65;9.40;;;;;;;13.92;100.00;100855.34;5051229;28;20400;-79
2022/10/14 09:26:53;;;;;;;23.55;10.57;;;;;;;13.94;100.00;100862.44;5052738;28;20087;-80
2022/10/14 09:29:22;;;;;;;14.90;10.30;;;;;;;13.95;100.00;100853.19;5049913;28;20059;-80
2022/10/14 09:31:47;;;;;;;19.77;10.40;;;;;;;13.96;100.00;100854.06;5060391;28;20037;-80
2022/10/14 09:34:23;;;;;;;16.17;9.98;;;;;;;13.97;100.00;100856.66;5059885;28;20124;-80
2022/10/14 09:36:49;;;;;;;18.30;10.43;;;;;;;14.01;100.00;100851.72;5059889;28;20036;-80
2022/10/14 09:39:16;;;;;;;14.05;9.38;;;;;;;14.06;100.00;100854.06;5058340;28;20064;-80
2022/10/14 09:41:45;;;;;;;12.57;8.95;;;;;;;14.05;100.00;100844.94;5042247;28;20040;-79
2022/10/14 09:44:17;;;;;;;13.77;8.57;;;;;;;14.03;100.00;100837.81;5042981;28;20048;-80
2022/10/14 09:46:47;;;;;;;10.98;8.23;;;;;;;14.12;100.00;100842.47;5060623;28;20040;-80
2022/10/14 09:49:18;;;;;;;12.52;8.48;;;;;;;14.13;100.00;100839.56;5059484;28;20061;-79
2022/10/14 09:51:43;;;;;;;16.40;9.18;;;;;;;14.18;100.00;100839.13;5059794;28;20040;-80
2022/10/14 09:54:20;;;;;;;18.48;8.73;;;;;;;14.23;100.00;100831.31;5040171;28;20056;-80
2022/10/14 09:56:48;;;;;;;12.95;9.20;;;;;;;14.26;100.00;100835.63;5060121;28;20036;-80
2022/10/14 09:59:18;;;;;;;18.83;9.85;;;;;;;14.27;100.00;100834.63;5058321;28;20480;-80
2022/10/14 10:02:00;;;;;;;15.60;9.02;;;;;;;14.28;100.00;100833.59;5041687;28;20103;-80
2022/10/14 10:04:48;;;;;;;14.32;9.05;;;;;;;14.23;100.00;100822.16;5056742;28;20029;-80
2022/10/14 10:07:40;;;;;;;14.25;9.82;;;;;;;14.28;100.00;100819.84;5059589;28;20075;-80
2022/10/14 10:10:18;;;;;;;15.60;8.82;;;;;;;14.27;100.00;100823.63;5037166;28;20041;-80
2022/10/14 10:12:46;;;;;;;14.40;9.10;;;;;;;14.20;100.00;100816.94;5058404;28;20524;-79
2022/10/14 10:15:20;;;;;;;13.73;9.68;;;;;;;14.25;100.00;100820.13;5057432;28;20058;-80
2022/10/14 10:17:47;;;;;;;22.23;9.93;;;;;;;14.26;100.00;100822.72;5057789;28;20032;-80
2022/10/14 10:20:32;;;;;;;16.30;9.95;;;;;;;14.25;100.00;100825.63;5057746;28;20040;-81
2022/10/14 10:23:23;;;;;;;16.13;10.38;;;;;;;14.23;100.00;100814.78;5062291;28;20423;-80
2022/10/14 10:25:49;;;;;;;21.23;10.63;;;;;;;14.25;100.00;100807.25;5061797;28;20105;-79
2022/10/14 10:28:19;;;;;;;19.13;10.43;;;;;;;14.24;100.00;100815.66;5057776;28;20449;-79
2022/10/14 10:31:01;;;;;;;23.23;11.80;;;;;;;14.29;100.00;100810.56;5058439;28;20041;-78
2022/10/14 10:33:39;;;;;;;22.25;11.18;;;;;;;14.27;100.00;100796.06;5053110;28;20031;-80
2022/10/14 10:36:21;;;;;;;16.52;11.13;;;;;;;14.24;100.00;100804.63;5036277;28;20029;-79
2022/10/14 10:38:58;;;;;;;20.80;10.40;;;;;;;14.24;100.00;100802.75;5036996;28;20037;-79
2022/10/14 10:41:57;;;;;;;18.90;11.52;;;;;;;14.22;100.00;100803.91;5036280;28;20036;-79
2022/10/14 10:44:39;;;;;;;20.70;12.23;;;;;;;14.27;100.00;100799.69;5036361;28;20078;-79
2022/10/14 10:47:11;;;;;;;21.10;11.55;;;;;;;14.24;100.00;100793.63;5035947;28;20034;-79
2022/10/14 10:49:58;;;;;;;21.85;12.48;;;;;;;14.24;100.00;100788.97;5048711;28;20086;-79
2022/10/14 10:53:02;;;;;;;24.60;13.88;;;;;;;14.20;100.00;100794.91;5057138;28;20037;-79
2022/10/14 10:55:52;;;;;;;23.00;12.88;;;;;;;14.15;100.00;100782.47;5055898;28;20048;-79
2022/10/14 10:58:39;;;;;;;28.17;13.88;;;;;;;14.19;100.00;100787.69;5058777;28;20113;-80
2022/10/14 11:01:30;;;;;;;31.17;14.50;;;;;;;14.25;100.00;100778.81;5038048;28;20021;-79
2022/10/14 11:04:14;;;;;;;36.20;15.15;;;;;;;14.33;100.00;100788.09;5073846;28;20040;-80
2022/10/14 11:12:58;;;;;;;29.30;16.27;;;;;;;14.30;100.00;100768.25;5057274;28;20025;-79
2022/10/14 11:15:30;;;;;;;29.65;16.48;;;;;;;14.30;100.00;100762.75;5042224;28;20044;-79
2022/10/14 11:18:09;;;;;;;29.60;17.23;;;;;;;14.21;100.00;100750.69;5057546;28;20049;-79
2022/10/14 11:20:53;;;;;;;30.00;17.13;;;;;;;14.23;100.00;100761.56;5056923;28;20040;-79